createdAt,value
2022-07-27T00:01:43.928Z,99.90
2022-07-27T00:04:39.894Z,99.90
2022-07-27T00:07:08.369Z,99.90
2022-07-27T00:09:48.158Z,99.90
2022-07-27T00:12:32.257Z,99.90
2022-07-27T00:15:18.394Z,99.90
2022-07-27T00:17:46.928Z,99.90
2022-07-27T00:20:31.462Z,99.90
2022-07-27T00:23:06.067Z,99.90
2022-07-27T00:25:38.794Z,99.90
2022-07-27T00:28:18.283Z,99.90
2022-07-27T00:30:56.590Z,99.90
2022-07-27T00:33:40.296Z,99.90
2022-07-27T00:36:17.835Z,99.90
2022-07-27T00:38:52.846Z,99.90
2022-07-27T00:41:29.200Z,99.90
2022-07-27T00:43:59.205Z,99.90
2022-07-27T00:46:34.385Z,99.90
2022-07-27T00:49:17.407Z,99.90
2022-07-27T00:51:46.154Z,99.90
2022-07-27T00:54:29.141Z,99.90
2022-07-27T00:56:59.608Z,99.90
2022-07-27T00:59:29.002Z,99.90
2022-07-27T01:02:04.497Z,99.90
2022-07-27T01:04:53.701Z,99.90
2022-07-27T01:07:24.485Z,99.90
2022-07-27T01:09:58.220Z,99.90
2022-07-27T01:12:37.229Z,99.90
2022-07-27T01:15:07.143Z,99.90
2022-07-27T01:17:43.275Z,99.90
2022-07-27T01:20:12.326Z,99.90
2022-07-27T01:22:42.147Z,99.90
2022-07-27T01:25:17.996Z,99.90
2022-07-27T01:27:55.327Z,99.90
2022-07-27T01:30:31.897Z,99.90
2022-07-27T01:33:09.069Z,99.90
2022-07-27T01:35:39.269Z,99.90
2022-07-27T01:38:43.076Z,99.90
2022-07-27T01:41:22.883Z,99.90
2022-07-27T01:44:05.278Z,99.90
2022-07-27T01:46:45.807Z,99.90
2022-07-27T01:49:25.733Z,99.90
2022-07-27T01:51:54.317Z,99.90
2022-07-27T01:54:52.083Z,99.90
2022-07-27T01:57:38.337Z,99.90
2022-07-27T02:00:25.207Z,99.90
2022-07-27T02:03:24.185Z,99.90
2022-07-27T02:06:06.885Z,99.90
2022-07-27T02:08:49.252Z,99.90
2022-07-27T02:11:37.434Z,99.90
2022-07-27T02:14:10.090Z,99.90
2022-07-27T02:16:46.726Z,99.90
2022-07-27T02:19:45.127Z,99.90
2022-07-27T02:22:28.014Z,99.90
2022-07-27T02:25:17.436Z,99.90
2022-07-27T02:27:54.552Z,99.90
2022-07-27T02:30:29.551Z,99.90
2022-07-27T02:33:25.728Z,99.90
2022-07-27T02:35:55.115Z,99.90
2022-07-27T02:38:26.080Z,99.90
2022-07-27T02:40:54.584Z,99.90
2022-07-27T02:43:31.429Z,99.90
2022-07-27T02:46:49.666Z,99.90
2022-07-27T02:49:42.972Z,99.90
2022-07-27T02:52:28.699Z,99.90
2022-07-27T02:55:04.970Z,99.90
2022-07-27T02:57:41.406Z,99.90
2022-07-27T03:00:14.075Z,99.90
2022-07-27T03:02:57.474Z,99.90
2022-07-27T03:05:33.701Z,99.90
2022-07-27T03:08:30.958Z,99.90
2022-07-27T03:11:35.484Z,99.90
2022-07-27T03:14:07.826Z,99.90
2022-07-27T03:17:31.701Z,99.90
2022-07-27T03:20:49.850Z,99.90
2022-07-27T03:23:34.611Z,99.90
2022-07-27T03:26:03.003Z,99.90
2022-07-27T03:28:55.095Z,99.90
2022-07-27T03:31:38.458Z,99.90
2022-07-27T03:34:20.061Z,99.90
2022-07-27T03:37:05.852Z,99.90
2022-07-27T03:39:38.736Z,99.90
2022-07-27T03:42:13.174Z,99.90
2022-07-27T03:44:41.493Z,99.90
2022-07-27T03:47:16.107Z,99.90
2022-07-27T03:49:49.034Z,99.90
2022-07-27T03:52:24.602Z,99.90
2022-07-27T03:54:57.429Z,99.90
2022-07-27T03:58:03.930Z,99.90
2022-07-27T04:00:42.807Z,99.90
2022-07-27T04:03:11.480Z,99.90
2022-07-27T04:05:42.912Z,99.90
2022-07-27T04:08:24.200Z,99.90
2022-07-27T04:11:03.226Z,99.90
2022-07-27T04:13:33.664Z,99.90
2022-07-27T04:16:10.737Z,99.90
2022-07-27T04:18:53.516Z,99.90
2022-07-27T04:21:33.847Z,99.90
2022-07-27T04:24:06.014Z,99.90
2022-07-27T04:27:00.837Z,99.90
2022-07-27T04:29:40.147Z,99.90
2022-07-27T04:32:34.452Z,99.90
2022-07-27T04:35:09.168Z,99.90
2022-07-27T04:38:02.515Z,99.90
2022-07-27T04:40:43.185Z,99.90
2022-07-27T04:43:29.778Z,99.90
2022-07-27T04:46:13.191Z,99.90
2022-07-27T04:48:49.726Z,99.90
2022-07-27T04:51:29.018Z,99.90
2022-07-27T04:54:01.080Z,99.90
2022-07-27T04:56:51.895Z,99.90
2022-07-27T04:59:33.324Z,99.90
2022-07-27T05:02:02.788Z,99.90
2022-07-27T05:04:41.748Z,99.90
2022-07-27T05:07:12.461Z,99.90
2022-07-27T05:09:53.397Z,99.90
2022-07-27T05:12:40.529Z,99.90
2022-07-27T05:15:29.000Z,99.90
2022-07-27T05:18:31.908Z,99.90
2022-07-27T05:21:03.120Z,99.90
2022-07-27T05:23:35.192Z,99.90
2022-07-27T05:26:28.766Z,99.90
2022-07-27T05:29:04.544Z,99.90
2022-07-27T05:31:35.754Z,99.90
2022-07-27T05:34:08.682Z,99.90
2022-07-27T05:36:37.558Z,99.90
2022-07-27T05:39:13.976Z,99.90
2022-07-27T05:41:43.466Z,99.90
2022-07-27T05:44:12.041Z,99.90
2022-07-27T05:46:42.109Z,99.90
2022-07-27T05:49:16.041Z,99.90
2022-07-27T05:51:45.075Z,99.90
2022-07-27T05:54:14.690Z,99.90
2022-07-27T05:56:55.410Z,99.90
2022-07-27T05:59:39.375Z,99.90
2022-07-27T06:02:32.048Z,99.90
2022-07-27T06:05:13.202Z,99.90
2022-07-27T06:08:00.258Z,99.90
2022-07-27T06:10:51.883Z,99.90
2022-07-27T06:13:26.647Z,99.90
2022-07-27T06:16:14.047Z,99.90
2022-07-27T06:18:54.346Z,99.90
2022-07-27T06:21:24.457Z,99.90
2022-07-27T06:23:57.212Z,99.90
2022-07-27T06:26:26.024Z,99.90
2022-07-27T06:29:14.574Z,99.90
2022-07-27T06:31:49.739Z,99.90
2022-07-27T06:34:26.075Z,99.90
2022-07-27T06:37:01.785Z,99.90
2022-07-27T06:39:46.753Z,99.90
2022-07-27T06:42:27.581Z,99.90
2022-07-27T06:44:56.795Z,99.90
2022-07-27T06:47:28.755Z,99.90
2022-07-27T06:49:59.353Z,99.90
2022-07-27T06:52:29.251Z,99.90
2022-07-27T06:54:59.827Z,99.90
2022-07-27T06:57:29.474Z,99.90
2022-07-27T07:00:04.580Z,99.90
2022-07-27T07:02:40.549Z,99.90
2022-07-27T07:05:12.006Z,99.90
2022-07-27T07:07:41.659Z,99.90
2022-07-27T07:10:12.701Z,99.90
2022-07-27T07:12:41.353Z,99.90
2022-07-27T07:15:20.020Z,99.90
2022-07-27T07:17:49.935Z,99.90
2022-07-27T07:20:28.865Z,99.90
2022-07-27T07:22:57.747Z,99.90
2022-07-27T07:25:26.545Z,99.90
2022-07-27T07:28:22.633Z,99.90
2022-07-27T07:31:20.763Z,99.90
2022-07-27T07:34:08.771Z,99.90
2022-07-27T07:37:03.775Z,99.90
2022-07-27T07:39:34.997Z,99.90
2022-07-27T07:42:17.964Z,99.90
2022-07-27T07:44:47.839Z,99.90
2022-07-27T07:47:17.675Z,99.90
2022-07-27T07:49:54.315Z,99.90
2022-07-27T07:52:44.465Z,99.90
2022-07-27T07:55:27.767Z,99.90
2022-07-27T07:58:14.400Z,99.90
2022-07-27T08:00:54.226Z,99.90
2022-07-27T08:03:40.641Z,98.70
2022-07-27T08:06:17.408Z,98.20
2022-07-27T08:08:48.055Z,98.30
2022-07-27T08:11:36.939Z,99.70
2022-07-27T08:14:06.868Z,98.70
2022-07-27T08:16:43.770Z,98.20
2022-07-27T08:19:40.220Z,97.80
2022-07-27T08:22:18.190Z,98.00
2022-07-27T08:24:51.235Z,96.20
2022-07-27T08:27:30.767Z,96.20
2022-07-27T08:30:12.088Z,95.50
2022-07-27T08:33:07.244Z,96.10
2022-07-27T08:35:46.511Z,96.10
2022-07-27T08:38:17.528Z,96.30
2022-07-27T08:40:53.612Z,96.60
2022-07-27T08:43:27.008Z,97.30
2022-07-27T08:46:23.437Z,98.30
2022-07-27T08:48:52.761Z,98.60
2022-07-27T08:51:25.413Z,98.80
2022-07-27T08:54:10.694Z,99.20
2022-07-27T08:56:59.510Z,98.30
2022-07-27T09:00:03.931Z,94.00
2022-07-27T09:02:41.352Z,90.10
2022-07-27T09:05:18.311Z,90.80
2022-07-27T09:07:53.181Z,85.70
2022-07-27T09:10:39.338Z,88.30
2022-07-27T09:13:29.651Z,87.10
2022-07-27T09:16:19.302Z,81.50
2022-07-27T09:19:08.066Z,77.30
2022-07-27T09:21:49.018Z,76.40
2022-07-27T09:24:45.452Z,79.30
2022-07-27T09:27:11.212Z,76.30
2022-07-27T09:30:04.890Z,75.20
2022-07-27T09:32:56.294Z,68.30
2022-07-27T09:35:27.775Z,67.60
2022-07-27T09:38:19.542Z,68.40
2022-07-27T09:41:02.617Z,62.10
2022-07-27T09:46:41.951Z,63.50
2022-07-27T09:49:29.454Z,62.60
2022-07-27T09:52:01.083Z,60.20
2022-07-27T09:54:45.669Z,61.60
2022-07-27T09:57:17.189Z,59.30
2022-07-27T09:59:47.201Z,58.20
2022-07-27T10:02:17.752Z,65.20
2022-07-27T10:04:49.392Z,69.60
2022-07-27T10:07:22.715Z,70.40
2022-07-27T10:09:53.807Z,76.00
2022-07-27T10:12:36.787Z,78.00
2022-07-27T10:15:11.733Z,79.40
2022-07-27T10:17:46.410Z,79.50
2022-07-27T10:20:20.151Z,79.70
2022-07-27T10:23:07.787Z,78.20
2022-07-27T10:25:46.565Z,74.20
2022-07-27T10:28:29.330Z,74.80
2022-07-27T10:31:18.253Z,76.40
2022-07-27T10:34:04.178Z,74.20
2022-07-27T10:36:56.892Z,67.30
2022-07-27T10:39:43.349Z,64.50
2022-07-27T10:42:30.639Z,67.00
2022-07-27T10:45:11.135Z,69.60
2022-07-27T10:47:42.489Z,64.50
2022-07-27T10:50:56.428Z,63.90
2022-07-27T10:54:09.403Z,61.50
2022-07-27T10:56:47.558Z,59.40
2022-07-27T11:02:53.226Z,61.50
2022-07-27T11:05:58.406Z,61.90
2022-07-27T11:08:36.628Z,66.30
2022-07-27T11:11:39.640Z,68.90
2022-07-27T11:14:15.060Z,72.50
2022-07-27T11:19:32.233Z,75.20
2022-07-27T11:22:04.885Z,77.70
2022-07-27T11:24:58.115Z,75.70
2022-07-27T11:27:49.666Z,72.80
2022-07-27T11:30:29.028Z,70.50
2022-07-27T11:32:58.794Z,67.90
2022-07-27T11:35:28.780Z,71.60
2022-07-27T11:38:06.391Z,71.70
2022-07-27T11:41:15.212Z,74.50
2022-07-27T11:43:55.805Z,70.40
2022-07-27T11:46:28.259Z,61.70
2022-07-27T11:49:07.468Z,56.70
2022-07-27T11:51:38.727Z,55.20
2022-07-27T11:54:16.224Z,55.70
2022-07-27T11:56:50.327Z,55.50
2022-07-27T11:59:21.934Z,52.20
2022-07-27T12:01:57.127Z,58.50
2022-07-27T12:04:34.300Z,61.10
2022-07-27T12:07:08.613Z,60.90
2022-07-27T12:09:40.898Z,61.40
2022-07-27T12:12:18.957Z,64.50
2022-07-27T12:14:53.225Z,64.40
2022-07-27T12:17:36.725Z,67.80
2022-07-27T12:20:17.806Z,63.20
2022-07-27T12:22:49.290Z,57.50
2022-07-27T12:25:30.122Z,58.90
2022-07-27T12:28:12.752Z,56.90
2022-07-27T12:30:59.251Z,56.90
2022-07-27T12:33:37.510Z,61.60
2022-07-27T12:36:13.398Z,64.40
2022-07-27T12:38:53.556Z,63.80
2022-07-27T12:41:38.365Z,65.60
2022-07-27T12:44:12.390Z,68.10
2022-07-27T12:46:55.092Z,63.60
2022-07-27T12:49:35.669Z,63.20
2022-07-27T12:52:17.779Z,61.50
2022-07-27T12:54:48.690Z,62.00
2022-07-27T12:57:39.596Z,63.10
2022-07-27T13:00:13.034Z,65.00
2022-07-27T13:02:48.243Z,68.40
2022-07-27T13:05:19.527Z,72.20
2022-07-27T13:07:49.084Z,73.70
2022-07-27T13:10:22.913Z,76.40
2022-07-27T13:12:57.309Z,77.70
2022-07-27T13:15:28.914Z,79.80
2022-07-27T13:17:58.617Z,80.00
2022-07-27T13:20:33.415Z,78.80
2022-07-27T13:23:10.395Z,81.10
2022-07-27T13:25:43.260Z,79.30
2022-07-27T13:28:15.130Z,81.60
2022-07-27T13:31:01.193Z,77.50
2022-07-27T13:33:47.218Z,78.00
2022-07-27T13:36:33.112Z,79.70
2022-07-27T13:39:25.143Z,78.80
2022-07-27T13:42:08.137Z,78.60
2022-07-27T13:45:12.945Z,77.00
2022-07-27T13:48:12.508Z,77.20
2022-07-27T13:50:42.546Z,75.20
2022-07-27T13:53:15.164Z,73.30
2022-07-27T13:56:14.257Z,76.50
2022-07-27T13:58:50.366Z,74.50
2022-07-27T14:01:36.439Z,74.70
2022-07-27T14:04:18.491Z,73.30
2022-07-27T14:06:59.430Z,70.70
2022-07-27T14:09:48.298Z,74.00
2022-07-27T14:12:26.745Z,70.50
2022-07-27T14:14:57.338Z,70.00
2022-07-27T14:17:33.870Z,67.30
2022-07-27T14:20:10.132Z,66.00
2022-07-27T14:22:40.695Z,66.20
2022-07-27T14:25:11.886Z,66.50
2022-07-27T14:27:44.640Z,61.60
2022-07-27T14:30:20.716Z,62.70
2022-07-27T14:33:03.156Z,63.50
2022-07-27T14:35:40.769Z,58.00
2022-07-27T14:38:10.860Z,58.30
2022-07-27T14:40:53.372Z,58.70
2022-07-27T14:43:30.632Z,58.00
2022-07-27T14:46:24.068Z,58.00
2022-07-27T14:49:06.027Z,55.50
2022-07-27T14:51:48.782Z,57.30
2022-07-27T14:54:17.426Z,54.10
2022-07-27T14:56:55.888Z,55.80
2022-07-27T14:59:27.389Z,58.00
2022-07-27T15:02:03.143Z,57.40
2022-07-27T15:04:47.547Z,55.20
2022-07-27T15:07:28.472Z,53.90
2022-07-27T15:10:16.589Z,55.30
2022-07-27T15:12:47.495Z,56.30
2022-07-27T15:15:39.009Z,55.30
2022-07-27T15:18:36.392Z,57.00
2022-07-27T15:21:18.808Z,58.90
2022-07-27T15:23:53.101Z,58.40
2022-07-27T15:26:35.732Z,58.50
2022-07-27T15:29:36.756Z,60.50
2022-07-27T15:32:07.433Z,60.80
2022-07-27T15:34:38.046Z,59.90
2022-07-27T15:37:12.006Z,61.20
2022-07-27T15:39:47.284Z,59.90
2022-07-27T15:42:43.099Z,58.20
2022-07-27T15:45:28.920Z,60.00
2022-07-27T15:48:23.309Z,60.30
2022-07-27T15:51:31.336Z,59.70
2022-07-27T15:54:24.390Z,57.30
2022-07-27T15:57:04.466Z,59.50
2022-07-27T15:59:35.054Z,55.90
2022-07-27T16:02:11.003Z,57.30
2022-07-27T16:04:46.443Z,58.30
2022-07-27T16:07:17.106Z,56.80
2022-07-27T16:09:53.978Z,59.60
2022-07-27T16:12:27.097Z,59.70
2022-07-27T16:15:09.038Z,58.90
2022-07-27T16:17:43.498Z,59.50
2022-07-27T16:20:34.973Z,64.50
2022-07-27T16:23:28.099Z,61.40
2022-07-27T16:26:07.024Z,60.90
2022-07-27T16:28:54.408Z,61.10
2022-07-27T16:31:38.067Z,62.70
2022-07-27T16:34:16.088Z,65.10
2022-07-27T16:36:51.178Z,67.40
2022-07-27T16:39:20.135Z,69.00
2022-07-27T16:42:20.637Z,70.90
2022-07-27T16:44:51.873Z,72.10
2022-07-27T16:47:20.458Z,73.50
2022-07-27T16:50:09.515Z,72.80
2022-07-27T16:52:53.655Z,75.90
2022-07-27T16:55:58.283Z,76.80
2022-07-27T16:58:51.751Z,77.60
2022-07-27T17:01:59.549Z,79.50
2022-07-27T17:04:31.732Z,78.90
2022-07-27T17:07:35.205Z,79.80
2022-07-27T17:10:06.653Z,80.40
2022-07-27T17:12:48.073Z,79.90
2022-07-27T17:15:24.444Z,79.80
2022-07-27T17:18:00.572Z,79.70
2022-07-27T17:21:07.336Z,80.70
2022-07-27T17:23:49.227Z,81.00
2022-07-27T17:30:15.589Z,81.60
2022-07-27T17:32:57.323Z,83.90
2022-07-27T17:35:39.706Z,85.20
2022-07-27T17:38:26.853Z,85.20
2022-07-27T17:41:08.109Z,87.10
2022-07-27T17:43:38.962Z,87.30
2022-07-27T17:46:14.176Z,88.30
2022-07-27T17:49:47.093Z,87.50
2022-07-27T17:53:11.494Z,89.40
2022-07-27T17:56:15.038Z,90.00
2022-07-27T17:59:37.081Z,90.20
2022-07-27T18:02:09.313Z,90.40
2022-07-27T18:04:52.855Z,90.30
2022-07-27T18:07:28.088Z,90.50
2022-07-27T18:10:13.030Z,90.60
2022-07-27T18:13:00.081Z,90.70
2022-07-27T18:15:51.217Z,91.30
2022-07-27T18:18:33.183Z,91.10
2022-07-27T18:21:04.516Z,91.30
2022-07-27T18:23:41.534Z,90.80
2022-07-27T18:26:13.200Z,90.80
2022-07-27T18:28:59.129Z,91.40
2022-07-27T18:31:33.488Z,91.30
2022-07-27T18:34:12.448Z,91.50
2022-07-27T18:37:08.077Z,91.30
2022-07-27T18:39:38.502Z,91.70
2022-07-27T18:42:13.646Z,91.90
2022-07-27T18:45:34.711Z,91.70
2022-07-27T18:48:46.341Z,91.50
2022-07-27T18:51:30.207Z,91.90
2022-07-27T18:54:06.982Z,92.00
2022-07-27T18:57:04.279Z,91.80
2022-07-27T18:59:54.421Z,92.20
2022-07-27T19:02:39.813Z,92.80
2022-07-27T19:05:40.616Z,92.60
2022-07-27T19:08:29.999Z,92.80
2022-07-27T19:11:09.790Z,92.90
2022-07-27T19:13:56.410Z,92.70
2022-07-27T19:16:38.748Z,93.40
2022-07-27T19:19:40.125Z,92.90
2022-07-27T19:22:22.526Z,93.50
2022-07-27T19:25:22.588Z,93.40
2022-07-27T19:28:12.119Z,93.90
2022-07-27T19:31:00.790Z,94.10
2022-07-27T19:33:57.082Z,94.40
2022-07-27T19:37:44.915Z,94.60
2022-07-27T19:40:49.355Z,95.40
2022-07-27T19:43:38.489Z,95.70
2022-07-27T19:47:00.731Z,96.00
2022-07-27T19:50:10.899Z,96.20
2022-07-27T19:56:39.421Z,96.60
2022-07-27T19:59:57.189Z,96.80
2022-07-27T20:03:21.227Z,97.30
2022-07-27T20:06:28.837Z,97.60
2022-07-27T20:17:02.777Z,98.50
2022-07-27T20:20:48.117Z,98.80
2022-07-27T20:24:20.478Z,99.30
2022-07-27T20:39:25.409Z,99.90
2022-07-27T20:42:40.301Z,99.90
2022-07-27T20:55:47.551Z,99.90
2022-07-27T20:58:21.513Z,99.90
2022-07-27T21:01:04.159Z,99.90
2022-07-27T21:03:34.727Z,99.90
2022-07-27T21:06:05.661Z,99.90
2022-07-27T21:08:51.370Z,99.90
2022-07-27T21:11:25.349Z,99.90
2022-07-27T21:14:14.770Z,99.90
2022-07-27T21:16:45.596Z,99.90
2022-07-27T21:19:15.212Z,99.90
2022-07-27T21:22:40.703Z,99.90
2022-07-27T21:25:45.880Z,99.90
2022-07-27T21:29:26.991Z,99.90
2022-07-27T21:32:08.187Z,99.90
2022-07-27T21:34:45.789Z,99.90
2022-07-27T21:37:30.957Z,99.90
2022-07-27T21:40:25.165Z,99.90
2022-07-27T21:43:13.169Z,99.90
2022-07-27T21:45:49.458Z,99.90
2022-07-27T21:48:23.650Z,99.90
2022-07-27T21:51:00.989Z,99.90
2022-07-27T21:53:29.620Z,99.90
2022-07-27T21:55:58.443Z,99.90
2022-07-27T21:58:27.445Z,99.90
2022-07-27T22:00:56.880Z,99.90
2022-07-27T22:03:41.650Z,99.90
2022-07-27T22:06:15.776Z,99.90
2022-07-27T22:08:46.437Z,99.90
2022-07-27T22:11:17.060Z,99.90
2022-07-27T22:13:57.881Z,99.90
2022-07-27T22:16:49.546Z,99.90
2022-07-27T22:19:20.624Z,99.90
2022-07-27T22:21:57.109Z,99.90
2022-07-27T22:24:27.577Z,99.90
2022-07-27T22:27:05.965Z,99.90
2022-07-27T22:29:37.018Z,99.90
2022-07-27T22:32:16.660Z,99.90
2022-07-27T22:34:48.879Z,99.90
2022-07-27T22:37:39.222Z,99.90
2022-07-27T22:40:49.071Z,99.90
2022-07-27T22:43:33.347Z,99.90
2022-07-27T22:46:10.234Z,99.90
2022-07-27T22:48:42.688Z,99.90
2022-07-27T22:51:49.490Z,99.90
2022-07-27T22:54:17.907Z,99.90
2022-07-27T22:56:53.598Z,99.90
2022-07-27T22:59:30.997Z,99.90
2022-07-27T23:02:09.615Z,99.90
2022-07-27T23:04:39.139Z,99.90
2022-07-27T23:07:09.240Z,99.90
2022-07-27T23:09:47.088Z,99.90
2022-07-27T23:12:29.660Z,99.90
2022-07-27T23:15:11.913Z,99.90
2022-07-27T23:17:41.862Z,99.90
2022-07-27T23:20:29.010Z,99.90
2022-07-27T23:23:00.940Z,99.90
2022-07-27T23:25:36.543Z,99.90
2022-07-27T23:28:19.097Z,99.90
2022-07-27T23:30:51.453Z,99.90
2022-07-27T23:33:35.718Z,99.90
2022-07-27T23:36:17.566Z,99.90
2022-07-27T23:39:02.963Z,99.90
2022-07-27T23:41:53.223Z,99.90
2022-07-27T23:44:22.802Z,99.90
2022-07-27T23:46:51.726Z,99.90
2022-07-27T23:49:20.805Z,99.90
2022-07-27T23:52:07.886Z,99.90
2022-07-27T23:54:57.495Z,99.90
2022-07-27T23:57:26.183Z,99.90
